Map

Track Data

SID SEASON NUMBER BASIN SUBBASIN NAME ISO_TIME NATURE LAT LON WMO_WIND WMO_PRES WMO_AGENCY TRACK_TYPE DIST2LAND LANDFALL IFLAG USA_AGENCY USA_ATCF_ID USA_LAT USA_LON USA_RECORD USA_STATUS USA_WIND USA_PRES USA_SSHS USA_R34_NE USA_R34_SE USA_R34_SW USA_R34_NW USA_R50_NE USA_R50_SE USA_R50_SW USA_R50_NW USA_R64_NE USA_R64_SE USA_R64_SW USA_R64_NW USA_POCI USA_ROCI USA_RMW USA_EYE TOKYO_LAT TOKYO_LON TOKYO_GRADE TOKYO_WIND TOKYO_PRES TOKYO_R50_DIR TOKYO_R50_LONG TOKYO_R50_SHORT TOKYO_R30_DIR TOKYO_R30_LONG TOKYO_R30_SHORT TOKYO_LAND CMA_LAT CMA_LON CMA_CAT CMA_WIND CMA_PRES HKO_LAT HKO_LON HKO_CAT HKO_WIND HKO_PRES NEWDELHI_LAT NEWDELHI_LON NEWDELHI_GRADE NEWDELHI_WIND NEWDELHI_PRES NEWDELHI_CI NEWDELHI_DP NEWDELHI_POCI REUNION_LAT REUNION_LON REUNION_TYPE REUNION_WIND REUNION_PRES REUNION_TNUM REUNION_CI REUNION_RMW REUNION_R34_NE REUNION_R34_SE REUNION_R34_SW REUNION_R34_NW REUNION_R50_NE REUNION_R50_SE REUNION_R50_SW REUNION_R50_NW REUNION_R64_NE REUNION_R64_SE REUNION_R64_SW REUNION_R64_NW BOM_LAT BOM_LON BOM_TYPE BOM_WIND BOM_PRES BOM_TNUM BOM_CI BOM_RMW BOM_R34_NE BOM_R34_SE BOM_R34_SW BOM_R34_NW BOM_R50_NE BOM_R50_SE BOM_R50_SW BOM_R50_NW BOM_R64_NE BOM_R64_SE BOM_R64_SW BOM_R64_NW BOM_ROCI BOM_POCI BOM_EYE BOM_POS_METHOD BOM_PRES_METHOD NADI_LAT NADI_LON NADI_CAT NADI_WIND NADI_PRES WELLINGTON_LAT WELLINGTON_LON WELLINGTON_WIND WELLINGTON_PRES DS824_LAT DS824_LON DS824_STAGE DS824_WIND DS824_PRES TD9636_LAT TD9636_LON TD9636_STAGE TD9636_WIND TD9636_PRES TD9635_LAT TD9635_LON TD9635_WIND TD9635_PRES TD9635_ROCI NEUMANN_LAT NEUMANN_LON NEUMANN_CLASS NEUMANN_WIND NEUMANN_PRES MLC_LAT MLC_LON MLC_CLASS MLC_WIND MLC_PRES USA_GUST BOM_GUST BOM_GUST_PER REUNION_GUST REUNION_GUST_PER USA_SEAHGT USA_SEARAD_NE USA_SEARAD_SE USA_SEARAD_SW USA_SEARAD_NW STORM_SPEED STORM_DIR
1947290N15141 1947 83 WP MM BEATRICE 1947-10-16 12:00:00 TS 14.7000 140.700 main 1667 1604 O________OOO__ jtwc_wp WP191947 14.7000 140.700 30 -1 14.7000 140.700 TC 30 14.7000 140.700 1 30 14.7000 140.700 30 1000 300 19 314
1947290N15141 1947 83 WP MM BEATRICE 1947-10-16 15:00:00 TS 15.3710 139.981 main 1606 1555 P________PPP__ WP191947 15.3981 139.966 32 -1 15.3981 139.966 TC 32 15.2896 140.024 1 31 15.3981 139.966 32 1000 300 18 314
1947290N15141 1947 83 WP MM BEATRICE 1947-10-16 18:00:00 TS 15.9631 139.319 main 1548 1508 O________OPO__ jtwc_wp WP191947 16.0000 139.300 35 0 16.0000 139.300 TC 35 15.8525 139.377 1 32 16.0000 139.300 35 1000 300 16 312
1947290N15141 1947 83 WP MM BEATRICE 1947-10-16 21:00:00 TS 16.4245 138.764 main 1508 1471 P________PPP__ WP191947 16.4447 138.754 35 0 16.4447 138.754 TC 35 16.3640 138.791 1 33 16.4447 138.754 35 999 270 13 311
1947290N15141 1947 83 WP MM BEATRICE 1947-10-17 00:00:00 TS 16.8000 138.300 main 1471 1442 O________OOO__ jtwc_wp WP191947 16.8000 138.300 35 0 16.8000 138.300 TC 35 16.8000 138.300 2 35 16.8000 138.300 35 999 240 11 311
1947290N15141 1947 83 WP MM BEATRICE 1947-10-17 03:00:00 TS 17.1767 137.862 main 1446 1425 P________PPP__ WP191947 17.1875 137.840 32 -1 17.1875 137.840 TC 32 17.1443 137.928 2 33 17.1875 137.840 32 997 270 10 313
1947290N15141 1947 83 WP MM BEATRICE 1947-10-17 06:00:00 TS 17.4778 137.539 main 1419 1414 O________OPO__ jtwc_wp WP191947 17.5000 137.500 30 -1 17.5000 137.500 TC 30 17.4113 137.656 2 32 17.5000 137.500 30 996 300 7 317
1947290N15141 1947 83 WP MM BEATRICE 1947-10-17 09:00:00 TS 17.6599 137.391 main 1418 1409 P________PPP__ WP191947 17.6723 137.370 30 -1 17.6723 137.370 TC 30 17.6227 137.456 2 31 17.6723 137.370 30 995 300 4 325
1947290N15141 1947 83 WP MM BEATRICE 1947-10-17 12:00:00 TS 17.8000 137.300 main 1413 1399 O________OOO__ jtwc_wp WP191947 17.8000 137.300 30 -1 17.8000 137.300 TC 30 17.8000 137.300 1 30 17.8000 137.300 30 994 300 4 319
1947290N15141 1947 83 WP MM BEATRICE 1947-10-17 15:00:00 TS 17.9902 137.094 main 1404 1390 P________PPP__ WP191947 18.0076 137.093 30 -1 18.0076 137.093 TC 30 17.9380 137.098 1 30 18.0076 137.093 30 993 300 5 314
1947290N15141 1947 83 WP MM BEATRICE 1947-10-17 18:00:00 TS 18.1637 136.909 main 1395 1385 O________OPO__ jtwc_wp WP191947 18.2000 136.900 30 -1 18.2000 136.900 TC 30 18.0548 136.938 1 30 18.2000 136.900 30 993 300 4 316
1947290N15141 1947 83 WP MM BEATRICE 1947-10-17 21:00:00 TS 18.2510 136.829 main 1391 1391 P________PPP__ WP191947 18.2700 136.827 30 -1 18.2700 136.827 TC 30 18.1943 136.833 1 30 18.2700 136.827 30 993 300 3 336
1947290N15141 1947 83 WP MM BEATRICE 1947-10-18 00:00:00 TS 18.4000 136.800 main 1396 1396 O________OOO__ jtwc_wp WP191947 18.4000 136.800 30 -1 18.4000 136.800 TC 30 18.4000 136.800 1 30 18.4000 136.800 30 994 300 5 348
1947290N15141 1947 83 WP MM BEATRICE 1947-10-18 03:00:00 TS 18.7511 136.718 main 1408 1408 P________PPP__ WP191947 18.7549 136.698 30 -1 18.7549 136.698 TC 30 18.7396 136.777 1 30 18.7549 136.698 30 995 300 8 355
1947290N15141 1947 83 WP MM BEATRICE 1947-10-18 06:00:00 TS 19.1865 136.733 main 1431 1416 O________OPO__ jtwc_wp WP191947 19.2000 136.700 30 -1 19.2000 136.700 TC 30 19.1462 136.834 1 30 19.2000 136.700 30 996 300 9 13
1947290N15141 1947 83 WP MM BEATRICE 1947-10-18 09:00:00 TS 19.6061 136.932 main 1416 1394 P________PPP__ WP191947 19.6148 136.910 30 -1 19.6148 136.910 TC 30 19.5798 136.999 1 30 19.6148 136.910 30 997 330 10 33
1947290N15141 1947 83 WP MM BEATRICE 1947-10-18 12:00:00 TS 20.0000 137.300 main 1394 1384 O________OOO__ jtwc_wp WP191947 20.0000 137.300 30 -1 20.0000 137.300 TC 30 20.0000 137.300 1 30 20.0000 137.300 30 998 360 11 49
1947290N15141 1947 83 WP MM BEATRICE 1947-10-18 15:00:00 TS 20.3237 137.796 main 1389 1385 P________PPP__ WP191947 20.3075 137.798 30 -1 20.3075 137.798 TC 30 20.3725 137.790 1 31 20.3075 137.798 30 999 360 12 59
1947290N15141 1947 83 WP MM BEATRICE 1947-10-18 18:00:00 TS 20.6299 138.402 main 1392 1384 O________OPO__ jtwc_wp WP191947 20.6000 138.400 30 -1 20.6000 138.400 TC 30 20.7198 138.408 1 32 20.6000 138.400 30 1000 360 14 61
1947290N15141 1947 83 WP MM BEATRICE 1947-10-18 21:00:00 TS 20.9876 139.072 main 1391 1387 P________PPP__ WP191947 20.9728 139.072 32 -1 20.9728 139.072 TC 32 21.0319 139.072 1 33 20.9728 139.072 32 999 360 14 61
1947290N15141 1947 83 WP MM BEATRICE 1947-10-19 00:00:00 TS 21.3000 139.700 main 1397 1393 O________OOO__ jtwc_wp WP191947 21.3000 139.700 35 0 21.3000 139.700 TC 35 21.3000 139.700 2 35 21.3000 139.700 35 999 360 11 64
1947290N15141 1947 83 WP MM BEATRICE 1947-10-19 03:00:00 TS 21.4793 140.145 main 1394 1392 P________PPP__ WP191947 21.4720 140.131 40 0 21.4720 140.131 TC 40 21.5010 140.189 2 37 21.4720 140.131 40 998 420 8 68
1947290N15141 1947 83 WP MM BEATRICE 1947-10-19 06:00:00 TS 21.6160 140.532 main 1396 1388 O________OPO__ jtwc_wp WP191947 21.6000 140.500 45 0 21.6000 140.500 TC 45 21.6639 140.627 2 40 21.6000 140.500 45 997 480 8 68
1947290N15141 1947 83 WP MM BEATRICE 1947-10-19 09:00:00 TS 21.7938 140.975 main 1392 1382 P________PPP__ WP191947 21.7850 140.958 45 0 21.7850 140.958 TC 45 21.8200 141.026 2 42 21.7850 140.958 45 996 420 9 65
1947290N15141 1947 83 WP MM BEATRICE 1947-10-19 12:00:00 TS 22.0000 141.400 main 1386 1373 O________OOO__ jtwc_wp WP191947 22.0000 141.400 45 0 22.0000 141.400 TC 45 22.0000 141.400 2 45 22.0000 141.400 45 995 360 9 59
1947290N15141 1947 83 WP MM BEATRICE 1947-10-19 15:00:00 TS 22.2396 141.766 main 1381 1359 P________PPP__ WP191947 22.2348 141.765 45 0 22.2348 141.765 TC 45 22.2538 141.768 2 45 22.2348 141.765 45 994 300 8 52
1947290N15141 1947 83 WP MM BEATRICE 1947-10-19 18:00:00 TS 22.5086 142.104 main 1364 1347 O________OPO__ jtwc_wp WP191947 22.5000 142.100 45 0 22.5000 142.100 TC 45 22.5343 142.115 2 45 22.5000 142.100 45 993 240 9 48
1947290N15141 1947 83 WP MM BEATRICE 1947-10-19 21:00:00 TS 22.8112 142.446 main 1347 1332 P________PPP__ WP191947 22.8074 142.443 45 0 22.8074 142.443 TC 45 22.8226 142.455 2 45 22.8074 142.443 45 992 240 9 47
1947290N15141 1947 83 WP MM BEATRICE 1947-10-20 00:00:00 TS 23.1000 142.800 main 1337 1328 O________OOO__ jtwc_wp WP191947 23.1000 142.800 45 0 23.1000 142.800 TC 45 23.1000 142.800 2 45 23.1000 142.800 45 992 240 8 54
1947290N15141 1947 83 WP MM BEATRICE 1947-10-20 03:00:00 TS 23.3038 143.172 main 1331 1319 P________PPP__ WP191947 23.3075 143.200 45 0 23.3075 143.200 TC 45 23.2926 143.086 2 45 23.3075 143.200 45 991 210 8 60
1947290N15141 1947 83 WP MM BEATRICE 1947-10-20 06:00:00 TS 23.4947 143.548 main 1319 1305 O________OPO__ jtwc_wp WP191947 23.5000 143.600 45 0 23.5000 143.600 TC 45 23.4790 143.391 2 45 23.5000 143.600 45 991 180 8 57
1947290N15141 1947 83 WP MM BEATRICE 1947-10-20 09:00:00 TS 23.7317 143.878 main 1308 1285 P________PPP__ WP191947 23.7420 143.913 45 0 23.7420 143.913 TC 45 23.7010 143.775 2 45 23.7420 143.913 45 991 180 9 54
1947290N15141 1947 83 WP MM BEATRICE 1947-10-20 12:00:00 TS 24.0000 144.300 main 1288 1280 O________OOO__ jtwc_wp WP191947 24.0000 144.300 45 0 24.0000 144.300 TC 45 24.0000 144.300 2 45 24.0000 144.300 45 991 180 10 61
1947290N15141 1947 83 WP MM BEATRICE 1947-10-20 15:00:00 TS 24.2315 144.877 main 1287 1273 P________PPP__ WP191947 24.1740 144.832 45 0 24.1740 144.832 TC 45 24.4042 145.012 2 41 24.1740 144.832 45 991 180 14 64
1947290N15141 1947 83 WP MM BEATRICE 1947-10-20 18:00:00 TS 24.5983 145.670 main 1277 1258 O________OPO__ jtwc_wp WP191947 24.5000 145.600 45 0 24.5000 145.600 TC 45 24.8934 145.881 2 37 24.5000 145.600 45 992 180 19 59
1947290N15141 1947 83 WP MM BEATRICE 1947-10-20 21:00:00 TS 25.2235 146.710 main 1263 1245 P________PPP__ WP191947 25.1528 146.660 37 0 25.1528 146.660 TC 37 25.4357 146.860 2 33 25.1528 146.660 37 993 150 25 55
1947290N15141 1947 83 WP MM BEATRICE 1947-10-21 00:00:00 TS 26.0000 147.900 main 1250 O________OOO__ jtwc_wp WP191947 26.0000 147.900 30 -1 26.0000 147.900 TC 30 26.0000 147.900 1 30 26.0000 147.900 30 995 120 27 54

Digital Typhoon Data and Search

About IBTrACS Database

This database is a web-friendly format of International Best Track Archive for Climate Stewardship (IBTrACS), a global best track data archive curated by NOAA dating back to 1842.

Updated: 2021-10-21